EZY345Y EGSS-EGAA
Flight info
| Callsign | EZY345Y |
|---|---|
| Flight time | N/A |
| Altitude | 36000 |
| Route | UTAVA Q75 BUZAD T420 TNT UL28 RODOL UM65 TENSO L603 BELOX DCT REMSI DCT UVPOK M147 ROBOP M146 IPSET P6 BELZU |
| Aircraft | A320/M-SDE3FGHIRWY/LB1 |
Departure
| Time | 2026-04-30 20:04 |
|---|---|
| Airport | London Stansted Airport (EGSS) |
Arrival
| Time | N/A |
|---|---|
| Airport | Belfast International Airport (EGAA) |
| Time | Latitude | Longitude | Altitude | Speed | Heading |
|---|---|---|---|---|---|
| 2026-04-30 19:39 | 51.89396 | 0.25943 | 348 ft | 0 kts | 223° |
| 2026-04-30 19:53 | 51.89401 | 0.25951 | 348 ft | 4 kts | 224° |
| 2026-04-30 19:53 | 51.89419 | 0.25984 | 357 ft | 4 kts | 239° |
| 2026-04-30 19:53 | 51.89429 | 0.26022 | 356 ft | 4 kts | 273° |
| 2026-04-30 19:54 | 51.89423 | 0.26048 | 353 ft | 1 kts | 313° |
| 2026-04-30 19:54 | 51.89421 | 0.26052 | 353 ft | 0 kts | 313° |
| 2026-04-30 19:54 | 51.89421 | 0.26051 | 353 ft | 0 kts | 313° |
| 2026-04-30 19:57 | 51.89424 | 0.26047 | 354 ft | 2 kts | 313° |
| 2026-04-30 19:57 | 51.89459 | 0.25986 | 360 ft | 11 kts | 313° |
| 2026-04-30 19:57 | 51.89518 | 0.25883 | 349 ft | 14 kts | 310° |
| 2026-04-30 19:57 | 51.89496 | 0.25756 | 346 ft | 12 kts | 221° |
| 2026-04-30 19:58 | 51.89428 | 0.25657 | 348 ft | 17 kts | 223° |
| 2026-04-30 19:58 | 51.89337 | 0.25514 | 352 ft | 20 kts | 224° |
| 2026-04-30 19:58 | 51.89238 | 0.25368 | 352 ft | 18 kts | 222° |
| 2026-04-30 19:58 | 51.89147 | 0.25234 | 344 ft | 17 kts | 222° |
| 2026-04-30 19:59 | 51.89056 | 0.25099 | 347 ft | 18 kts | 223° |
| 2026-04-30 19:59 | 51.88964 | 0.24960 | 345 ft | 18 kts | 223° |
| 2026-04-30 19:59 | 51.88778 | 0.24680 | 348 ft | 19 kts | 223° |
| 2026-04-30 20:00 | 51.88686 | 0.24539 | 349 ft | 17 kts | 223° |
| 2026-04-30 20:00 | 51.88587 | 0.24388 | 354 ft | 21 kts | 223° |
| 2026-04-30 20:00 | 51.88454 | 0.24186 | 350 ft | 30 kts | 223° |
| 2026-04-30 20:00 | 51.88292 | 0.23949 | 338 ft | 32 kts | 221° |
| 2026-04-30 20:01 | 51.87943 | 0.23429 | 334 ft | 35 kts | 225° |
| 2026-04-30 20:01 | 51.87768 | 0.23162 | 337 ft | 30 kts | 223° |
| 2026-04-30 20:01 | 51.87758 | 0.22994 | 335 ft | 15 kts | 316° |
| 2026-04-30 20:02 | 51.87872 | 0.22790 | 335 ft | 0 kts | 313° |
| 2026-04-30 20:03 | 51.87966 | 0.22692 | 332 ft | 15 kts | 14° |
| 2026-04-30 20:03 | 51.88001 | 0.22730 | 330 ft | 0 kts | 41° |
| 2026-04-30 20:03 | 51.88041 | 0.22789 | 333 ft | 37 kts | 42° |
| 2026-04-30 20:03 | 51.88417 | 0.23364 | 334 ft | 107 kts | 43° |
| 2026-04-30 20:04 | 51.89103 | 0.24389 | 351 ft | 158 kts | 43° |
| 2026-04-30 20:04 | 51.89935 | 0.25624 | 958 ft | 163 kts | 44° |
| 2026-04-30 20:04 | 51.90792 | 0.26836 | 1716 ft | 164 kts | 49° |
| 2026-04-30 20:05 | 51.92714 | 0.29447 | 2562 ft | 206 kts | 36° |
| 2026-04-30 20:05 | 51.94204 | 0.29984 | 2944 ft | 238 kts | 359° |
| 2026-04-30 20:05 | 51.97049 | 0.26593 | 3823 ft | 285 kts | 292° |
| 2026-04-30 20:06 | 51.97696 | 0.23509 | 4576 ft | 291 kts | 278° |
| 2026-04-30 20:06 | 51.98016 | 0.20315 | 4941 ft | 281 kts | 272° |
| 2026-04-30 20:06 | 51.98197 | 0.17196 | 5024 ft | 276 kts | 271° |
| 2026-04-30 20:06 | 51.98368 | 0.14092 | 5037 ft | 276 kts | 272° |
| 2026-04-30 20:07 | 51.98582 | 0.10999 | 5036 ft | 276 kts | 273° |
| 2026-04-30 20:07 | 51.98845 | 0.07913 | 5036 ft | 275 kts | 274° |
| 2026-04-30 20:07 | 51.98641 | 0.01833 | 5034 ft | 270 kts | 258° |
| 2026-04-30 20:08 | 51.98406 | -0.01194 | 5025 ft | 270 kts | 259° |
| 2026-04-30 20:08 | 51.98183 | -0.04221 | 5015 ft | 270 kts | 259° |
| 2026-04-30 20:08 | 51.97960 | -0.07240 | 5016 ft | 270 kts | 259° |
| 2026-04-30 20:08 | 51.97729 | -0.10317 | 5456 ft | 277 kts | 259° |
| 2026-04-30 20:09 | 51.97494 | -0.13412 | 6515 ft | 277 kts | 259° |
| 2026-04-30 20:09 | 51.97253 | -0.16553 | 7386 ft | 283 kts | 259° |
| 2026-04-30 20:09 | 51.96761 | -0.22928 | 9129 ft | 291 kts | 259° |
| 2026-04-30 20:10 | 51.96243 | -0.29552 | 10625 ft | 310 kts | 259° |
| 2026-04-30 20:10 | 51.95991 | -0.32708 | 10906 ft | 329 kts | 259° |
| 2026-04-30 20:10 | 51.95712 | -0.36208 | 11501 ft | 338 kts | 259° |
| 2026-04-30 20:11 | 51.95165 | -0.43200 | 12889 ft | 347 kts | 259° |
| 2026-04-30 20:11 | 51.94927 | -0.46590 | 13537 ft | 353 kts | 263° |
| 2026-04-30 20:11 | 51.94888 | -0.50626 | 14209 ft | 360 kts | 271° |
| 2026-04-30 20:12 | 51.97248 | -0.57802 | 15484 ft | 379 kts | 319° |
| 2026-04-30 20:12 | 51.99427 | -0.60236 | 16159 ft | 382 kts | 331° |
| 2026-04-30 20:12 | 52.01754 | -0.62367 | 16827 ft | 385 kts | 329° |
| 2026-04-30 20:13 | 52.04059 | -0.64618 | 17517 ft | 389 kts | 328° |
| 2026-04-30 20:13 | 52.06367 | -0.66946 | 18176 ft | 392 kts | 327° |
| 2026-04-30 20:13 | 52.08695 | -0.69309 | 18793 ft | 396 kts | 327° |
| 2026-04-30 20:13 | 52.11046 | -0.71685 | 19352 ft | 400 kts | 328° |
| 2026-04-30 20:14 | 52.13423 | -0.74065 | 19908 ft | 403 kts | 328° |
| 2026-04-30 20:14 | 52.15829 | -0.76458 | 20461 ft | 407 kts | 328° |
| 2026-04-30 20:14 | 52.18259 | -0.78861 | 20995 ft | 411 kts | 328° |
| 2026-04-30 20:14 | 52.20718 | -0.81283 | 21533 ft | 415 kts | 328° |
| 2026-04-30 20:15 | 52.23198 | -0.83724 | 22054 ft | 418 kts | 328° |
| 2026-04-30 20:15 | 52.25671 | -0.86162 | 22562 ft | 422 kts | 328° |
| 2026-04-30 20:15 | 52.28172 | -0.88701 | 23067 ft | 425 kts | 323° |
| 2026-04-30 20:15 | 52.30381 | -0.91915 | 23573 ft | 426 kts | 313° |
| 2026-04-30 20:16 | 52.32253 | -0.95656 | 24034 ft | 426 kts | 301° |
| 2026-04-30 20:16 | 52.33842 | -0.99652 | 24982 ft | 410 kts | 300° |
| 2026-04-30 20:16 | 52.35356 | -1.03457 | 26182 ft | 389 kts | 300° |
| 2026-04-30 20:16 | 52.36805 | -1.07054 | 27388 ft | 369 kts | 300° |
| 2026-04-30 20:17 | 52.38214 | -1.10533 | 28173 ft | 363 kts | 300° |
| 2026-04-30 20:17 | 52.39651 | -1.13932 | 28693 ft | 366 kts | 308° |
| 2026-04-30 20:17 | 52.41573 | -1.16702 | 29123 ft | 372 kts | 328° |
| 2026-04-30 20:17 | 52.43854 | -1.18748 | 29469 ft | 375 kts | 326° |
| 2026-04-30 20:18 | 52.45821 | -1.21514 | 29820 ft | 374 kts | 310° |
| 2026-04-30 20:18 | 52.47544 | -1.24719 | 30218 ft | 375 kts | 306° |
| 2026-04-30 20:18 | 52.49183 | -1.28062 | 30560 ft | 377 kts | 305° |
| 2026-04-30 20:18 | 52.50821 | -1.31445 | 30882 ft | 380 kts | 306° |
| 2026-04-30 20:19 | 52.52501 | -1.34811 | 31228 ft | 382 kts | 307° |
| 2026-04-30 20:19 | 52.53638 | -1.37014 | 31466 ft | 383 kts | 307° |
| 2026-04-30 20:19 | 52.56001 | -1.41446 | 31926 ft | 387 kts | 309° |
| 2026-04-30 20:19 | 52.57779 | -1.44705 | 32273 ft | 389 kts | 309° |
| 2026-04-30 20:20 | 52.59615 | -1.48056 | 32633 ft | 390 kts | 309° |
| 2026-04-30 20:20 | 52.61439 | -1.51391 | 32987 ft | 393 kts | 309° |
| 2026-04-30 20:20 | 52.63266 | -1.54747 | 33326 ft | 395 kts | 309° |
| 2026-04-30 20:20 | 52.65103 | -1.58137 | 33673 ft | 397 kts | 309° |
| 2026-04-30 20:21 | 52.66912 | -1.61492 | 33989 ft | 399 kts | 309° |
| 2026-04-30 20:21 | 52.68758 | -1.64926 | 34282 ft | 401 kts | 309° |
| 2026-04-30 20:21 | 52.70612 | -1.68385 | 34563 ft | 403 kts | 308° |
| 2026-04-30 20:21 | 52.72468 | -1.71862 | 34837 ft | 404 kts | 308° |
| 2026-04-30 20:22 | 52.74334 | -1.75361 | 35138 ft | 407 kts | 309° |
| 2026-04-30 20:22 | 52.76209 | -1.78874 | 35384 ft | 409 kts | 308° |
| 2026-04-30 20:22 | 52.78092 | -1.82398 | 35630 ft | 411 kts | 309° |
| 2026-04-30 20:22 | 52.79991 | -1.85951 | 35854 ft | 412 kts | 309° |
| 2026-04-30 20:23 | 52.81893 | -1.89519 | 36081 ft | 414 kts | 309° |
| 2026-04-30 20:23 | 52.83808 | -1.93117 | 36193 ft | 420 kts | 309° |
| 2026-04-30 20:23 | 52.85753 | -1.96780 | 36224 ft | 427 kts | 309° |
| 2026-04-30 20:24 | 52.89737 | -2.04309 | 36216 ft | 443 kts | 309° |
| 2026-04-30 20:24 | 52.93848 | -2.12104 | 36213 ft | 453 kts | 309° |
| 2026-04-30 20:25 | 53.00056 | -2.23894 | 36205 ft | 454 kts | 308° |
| 2026-04-30 20:26 | 53.05805 | -2.34871 | 36207 ft | 454 kts | 308° |
| 2026-04-30 20:26 | 53.12012 | -2.46785 | 36209 ft | 454 kts | 308° |
| 2026-04-30 20:27 | 53.20231 | -2.62647 | 36225 ft | 453 kts | 308° |
| 2026-04-30 20:28 | 53.28415 | -2.78563 | 36213 ft | 451 kts | 308° |
| 2026-04-30 20:30 | 53.38596 | -2.98474 | 36201 ft | 450 kts | 308° |
| 2026-04-30 20:31 | 53.50074 | -3.21131 | 36196 ft | 449 kts | 308° |
| 2026-04-30 20:32 | 53.60164 | -3.41190 | 36182 ft | 449 kts | 308° |
| 2026-04-30 20:33 | 53.66184 | -3.53276 | 36092 ft | 450 kts | 307° |
| 2026-04-30 20:33 | 53.68175 | -3.57286 | 35441 ft | 452 kts | 307° |
| 2026-04-30 20:34 | 53.72195 | -3.65370 | 34386 ft | 447 kts | 307° |